Time;durP1;ratioP1;P1;durP2;ratioP2;P2;SDS_P1;SDS_P2;PMS_P1;PMS_P2;Temp;Humidity;BMP_temperature;BMP_pressure;BME280_temperature;BME280_humidity;BME280_pressure;Samples;Min_cycle;Max_cycle;Signal;HPM_P1;HPM_P2
2024/02/25 00:01:18;;;;;;;0.60;0.60;;;;;;;;;;5094227;28;20044;-68
2024/02/25 00:03:46;;;;;;;0.60;0.60;;;;;;;;;;5092002;28;20086;-66
2024/02/25 00:06:16;;;;;;;0.93;0.70;;;;;;;;;;5091506;28;20036;-65
2024/02/25 00:08:45;;;;;;;2.83;0.88;;;;;;;;;;5091091;28;20052;-65
2024/02/25 00:11:13;;;;;;;1.63;0.88;;;;;;;;;;5087072;28;20071;-66
2024/02/25 00:13:42;;;;;;;1.42;0.90;;;;;;;;;;5093503;28;20473;-65
2024/02/25 00:16:10;;;;;;;1.10;0.80;;;;;;;;;;5096173;28;20501;-69
2024/02/25 00:18:38;;;;;;;2.47;0.90;;;;;;;;;;5096481;28;20455;-68
2024/02/25 00:21:07;;;;;;;1.67;0.85;;;;;;;;;;5095193;28;20048;-65
2024/02/25 00:23:37;;;;;;;1.52;1.23;;;;;;;;;;5091773;28;20067;-66
2024/02/25 00:26:06;;;;;;;2.55;1.60;;;;;;;;;;5088961;28;20040;-66
2024/02/25 00:28:34;;;;;;;2.75;1.95;;;;;;;;;;5091444;28;20048;-64
2024/02/25 00:31:02;;;;;;;2.55;1.55;;;;;;;;;;5093284;28;20496;-66
2024/02/25 00:33:31;;;;;;;3.13;1.70;;;;;;;;;;5083975;28;20045;-65
2024/02/25 00:35:59;;;;;;;1.70;1.40;;;;;;;;;;5082167;28;20051;-65
2024/02/25 00:38:28;;;;;;;1.60;1.25;;;;;;;;;;5100149;28;20044;-67
2024/02/25 00:40:58;;;;;;;2.58;1.67;;;;;;;;;;5093027;28;20075;-69
2024/02/25 00:43:29;;;;;;;2.88;1.95;;;;;;;;;;5088161;28;20059;-66
2024/02/25 00:45:57;;;;;;;2.63;2.15;;;;;;;;;;5090577;28;20047;-70
2024/02/25 00:48:26;;;;;;;3.08;2.17;;;;;;;;;;5091372;28;20264;-65
2024/02/25 00:50:55;;;;;;;3.40;2.30;;;;;;;;;;5093084;28;20056;-65
2024/02/25 00:53:23;;;;;;;2.85;2.25;;;;;;;;;;5087042;28;20072;-66
2024/02/25 00:55:51;;;;;;;3.25;2.10;;;;;;;;;;5091518;28;20044;-66
2024/02/25 00:58:21;;;;;;;5.38;2.72;;;;;;;;;;5088317;28;20329;-65
2024/02/25 01:00:53;;;;;;;3.08;2.10;;;;;;;;;;5083568;28;20040;-68
2024/02/25 01:03:22;;;;;;;3.63;2.10;;;;;;;;;;5086669;28;20044;-65
2024/02/25 01:05:50;;;;;;;3.85;2.30;;;;;;;;;;5086466;28;20054;-67
2024/02/25 01:08:19;;;;;;;3.85;2.22;;;;;;;;;;5085610;28;20167;-65
2024/02/25 01:10:48;;;;;;;3.00;2.03;;;;;;;;;;5086869;28;20083;-65
2024/02/25 01:13:17;;;;;;;2.75;2.05;;;;;;;;;;5087183;28;20048;-66
2024/02/25 01:15:47;;;;;;;2.55;2.15;;;;;;;;;;5083489;28;20056;-65
2024/02/25 01:18:15;;;;;;;3.05;2.20;;;;;;;;;;5087476;28;20048;-65
2024/02/25 01:20:44;;;;;;;3.78;2.50;;;;;;;;;;5085511;28;20044;-65
2024/02/25 01:23:12;;;;;;;3.35;2.08;;;;;;;;;;5087011;28;20044;-67
2024/02/25 01:25:40;;;;;;;2.47;2.00;;;;;;;;;;5087757;28;20130;-64
2024/02/25 01:28:09;;;;;;;2.17;1.58;;;;;;;;;;5099392;28;20044;-66
2024/02/25 01:30:37;;;;;;;6.78;3.08;;;;;;;;;;5085538;28;20076;-66
2024/02/25 01:33:07;;;;;;;6.10;2.72;;;;;;;;;;5087082;28;20458;-67
2024/02/25 01:35:35;;;;;;;3.13;2.15;;;;;;;;;;5089096;28;20071;-65
2024/02/25 01:38:04;;;;;;;4.05;2.70;;;;;;;;;;5097523;28;20092;-66
2024/02/25 01:40:32;;;;;;;4.35;2.53;;;;;;;;;;5088704;28;20044;-65
2024/02/25 01:43:07;;;;;;;4.35;2.50;;;;;;;;;;5100914;28;20070;-67
2024/02/25 01:45:35;;;;;;;;;;;;;;;;;;5074954;28;20047;-66
2024/02/25 01:48:04;;;;;;;3.03;2.15;;;;;;;;;;5087479;28;19928;-65
2024/02/25 01:50:35;;;;;;;4.80;2.10;;;;;;;;;;5086942;28;20422;-65
2024/02/25 01:53:03;;;;;;;3.33;1.85;;;;;;;;;;5093479;28;20052;-65
2024/02/25 01:55:33;;;;;;;3.05;1.92;;;;;;;;;;5087840;28;20043;-66
2024/02/25 01:58:02;;;;;;;1.80;1.65;;;;;;;;;;5091065;28;20040;-66
2024/02/25 02:00:31;;;;;;;2.78;1.88;;;;;;;;;;5085800;28;20056;-67
2024/02/25 02:02:59;;;;;;;2.05;1.52;;;;;;;;;;5092316;28;20503;-67
2024/02/25 02:05:28;;;;;;;3.95;1.70;;;;;;;;;;5087104;28;20067;-66
2024/02/25 02:07:58;;;;;;;4.13;1.80;;;;;;;;;;5044505;28;1144109;-67
2024/02/25 02:10:27;;;;;;;2.50;1.55;;;;;;;;;;5089887;28;20080;-67
2024/02/25 02:12:55;;;;;;;1.80;1.40;;;;;;;;;;5096824;28;20048;-66
2024/02/25 02:15:24;;;;;;;2.28;1.60;;;;;;;;;;5089526;28;20040;-65
2024/02/25 02:17:52;;;;;;;1.92;1.33;;;;;;;;;;5090220;28;20105;-66
2024/02/25 02:20:21;;;;;;;2.22;1.50;;;;;;;;;;5087657;28;20044;-66
2024/02/25 02:22:51;;;;;;;1.63;1.40;;;;;;;;;;5088576;28;20044;-65
2024/02/25 02:25:19;;;;;;;2.08;1.50;;;;;;;;;;5086261;28;20397;-65
2024/02/25 02:27:50;;;;;;;2.10;1.23;;;;;;;;;;5087833;28;20044;-66
2024/02/25 02:30:18;;;;;;;2.63;1.38;;;;;;;;;;5099287;28;20063;-66
2024/02/25 02:32:47;;;;;;;4.75;1.27;;;;;;;;;;5082964;28;20086;-66
2024/02/25 02:35:15;;;;;;;3.08;1.60;;;;;;;;;;5082080;28;20091;-65
2024/02/25 02:37:44;;;;;;;2.58;1.48;;;;;;;;;;5090661;28;20040;-65
2024/02/25 02:40:14;;;;;;;3.33;1.33;;;;;;;;;;5099991;28;20060;-64
2024/02/25 02:42:42;;;;;;;1.90;1.40;;;;;;;;;;5093954;28;20048;-65
2024/02/25 02:45:11;;;;;;;1.60;1.27;;;;;;;;;;5085942;28;20044;-65
2024/02/25 02:47:39;;;;;;;2.53;1.45;;;;;;;;;;5082680;28;20068;-66
2024/02/25 02:50:10;;;;;;;2.60;1.35;;;;;;;;;;5086651;28;20131;-66
2024/02/25 02:52:40;;;;;;;3.65;1.60;;;;;;;;;;5092854;28;20209;-64
2024/02/25 02:55:09;;;;;;;2.00;1.75;;;;;;;;;;5089069;28;20090;-66
2024/02/25 02:57:38;;;;;;;1.77;1.40;;;;;;;;;;5090503;28;20091;-65
2024/02/25 03:00:08;;;;;;;2.47;1.50;;;;;;;;;;5089724;28;20411;-66
2024/02/25 03:02:37;;;;;;;2.03;1.50;;;;;;;;;;5087734;28;20384;-66
2024/02/25 03:05:05;;;;;;;2.15;1.40;;;;;;;;;;5087945;28;20165;-65
2024/02/25 03:07:34;;;;;;;1.98;1.27;;;;;;;;;;5087810;28;20084;-67
2024/02/25 03:10:02;;;;;;;3.25;1.20;;;;;;;;;;5069208;28;20075;-67
2024/02/25 03:12:31;;;;;;;1.85;1.33;;;;;;;;;;5082978;28;20324;-65
2024/02/25 03:15:01;;;;;;;2.20;1.40;;;;;;;;;;5076362;28;20126;-65
2024/02/25 03:17:29;;;;;;;3.85;1.50;;;;;;;;;;5082848;28;20496;-66
2024/02/25 03:19:58;;;;;;;1.25;1.15;;;;;;;;;;5074261;28;20079;-66
2024/02/25 03:22:26;;;;;;;3.10;1.50;;;;;;;;;;5078142;28;20113;-67
2024/02/25 03:24:54;;;;;;;2.17;1.38;;;;;;;;;;5068261;28;20045;-65
2024/02/25 03:27:23;;;;;;;2.85;1.70;;;;;;;;;;5081725;28;20072;-66
2024/02/25 03:29:51;;;;;;;2.85;1.30;;;;;;;;;;5075481;28;20076;-65
2024/02/25 03:32:21;;;;;;;2.33;1.60;;;;;;;;;;5075582;28;20047;-65
2024/02/25 03:34:50;;;;;;;2.42;1.50;;;;;;;;;;5070496;28;20159;-66
2024/02/25 03:37:18;;;;;;;2.35;1.42;;;;;;;;;;5071956;28;20054;-66
2024/02/25 03:39:47;;;;;;;3.63;1.75;;;;;;;;;;5082660;28;20467;-66
2024/02/25 03:42:15;;;;;;;2.30;1.60;;;;;;;;;;5084623;28;20488;-64
2024/02/25 03:44:43;;;;;;;1.63;1.35;;;;;;;;;;5078867;28;20040;-65
2024/02/25 03:47:12;;;;;;;2.35;1.30;;;;;;;;;;5075175;28;20469;-65
2024/02/25 03:49:42;;;;;;;1.60;1.15;;;;;;;;;;5083982;28;20524;-65
2024/02/25 03:52:11;;;;;;;1.95;1.58;;;;;;;;;;5080382;28;20084;-65
2024/02/25 03:54:39;;;;;;;1.85;1.30;;;;;;;;;;5078674;28;20497;-65
2024/02/25 03:57:07;;;;;;;2.25;1.65;;;;;;;;;;5080443;28;20106;-65
2024/02/25 03:59:36;;;;;;;2.53;1.55;;;;;;;;;;5072824;28;20048;-67
2024/02/25 04:02:04;;;;;;;2.92;1.67;;;;;;;;;;5079481;28;20048;-65
2024/02/25 04:04:32;;;;;;;1.27;1.10;;;;;;;;;;5072304;28;20048;-68
2024/02/25 04:07:02;;;;;;;1.60;1.35;;;;;;;;;;5079554;28;20048;-68
2024/02/25 04:09:31;;;;;;;1.83;1.35;;;;;;;;;;5096542;28;20133;-64
2024/02/25 04:12:00;;;;;;;3.00;1.90;;;;;;;;;;5096156;28;20105;-68
2024/02/25 04:14:31;;;;;;;2.38;1.65;;;;;;;;;;5097231;28;20048;-65
2024/02/25 04:17:00;;;;;;;2.00;1.40;;;;;;;;;;5101198;28;20054;-66
2024/02/25 04:19:28;;;;;;;2.17;1.40;;;;;;;;;;5100525;28;20055;-67
2024/02/25 04:21:56;;;;;;;1.70;1.33;;;;;;;;;;5103545;28;20071;-67
2024/02/25 04:24:26;;;;;;;3.03;1.35;;;;;;;;;;5085545;28;20036;-64
2024/02/25 04:26:54;;;;;;;1.83;1.27;;;;;;;;;;5108068;28;20047;-66
2024/02/25 04:29:23;;;;;;;2.75;1.60;;;;;;;;;;5089466;28;20051;-67
2024/02/25 04:31:51;;;;;;;2.25;1.45;;;;;;;;;;5089640;28;20052;-64
2024/02/25 04:34:20;;;;;;;1.83;1.30;;;;;;;;;;5096272;28;20046;-64
2024/02/25 04:36:49;;;;;;;1.52;1.42;;;;;;;;;;5089572;28;20052;-65
2024/02/25 04:39:17;;;;;;;2.63;1.52;;;;;;;;;;5104298;28;20461;-68
2024/02/25 04:41:47;;;;;;;2.22;1.42;;;;;;;;;;5089968;28;20053;-65
2024/02/25 04:44:15;;;;;;;2.55;1.63;;;;;;;;;;5090674;28;20056;-64
2024/02/25 04:46:43;;;;;;;2.17;1.60;;;;;;;;;;5083840;28;20044;-64
2024/02/25 04:49:13;;;;;;;1.88;1.30;;;;;;;;;;5085622;28;20051;-66
2024/02/25 04:51:41;;;;;;;2.50;1.60;;;;;;;;;;5094009;28;20500;-65
2024/02/25 04:54:12;;;;;;;2.17;1.40;;;;;;;;;;5091781;28;20087;-67
2024/02/25 04:56:40;;;;;;;1.58;1.30;;;;;;;;;;5088866;28;20119;-64
2024/02/25 04:59:10;;;;;;;1.85;1.40;;;;;;;;;;5095347;28;20051;-64
2024/02/25 05:01:44;;;;;;;3.28;1.48;;;;;;;;;;5087811;28;20485;-64
2024/02/25 05:04:13;;;;;;;1.48;1.30;;;;;;;;;;5086183;28;20492;-65
2024/02/25 05:06:41;;;;;;;2.97;1.50;;;;;;;;;;5088956;28;20052;-65
2024/02/25 05:09:09;;;;;;;1.88;1.27;;;;;;;;;;5088533;28;20051;-65
2024/02/25 05:11:38;;;;;;;2.65;1.40;;;;;;;;;;5080723;28;20059;-65
2024/02/25 05:14:07;;;;;;;1.48;1.30;;;;;;;;;;5090076;28;20051;-67
2024/02/25 05:16:36;;;;;;;2.05;1.20;;;;;;;;;;5090929;28;20036;-65
2024/02/25 05:19:05;;;;;;;1.75;1.10;;;;;;;;;;5085511;28;20044;-68
2024/02/25 05:21:33;;;;;;;1.30;1.20;;;;;;;;;;5093230;28;20039;-65
2024/02/25 05:24:02;;;;;;;1.63;1.30;;;;;;;;;;5087007;28;20040;-65
2024/02/25 05:26:31;;;;;;;2.53;1.75;;;;;;;;;;5103413;28;20075;-65
2024/02/25 05:28:59;;;;;;;1.45;1.10;;;;;;;;;;5093495;28;20489;-64
2024/02/25 05:31:28;;;;;;;1.83;1.10;;;;;;;;;;5095593;28;20047;-68
2024/02/25 05:33:58;;;;;;;2.33;1.42;;;;;;;;;;5090183;28;20051;-64
2024/02/25 05:36:26;;;;;;;2.15;1.13;;;;;;;;;;5097873;28;20138;-64
2024/02/25 05:38:54;;;;;;;2.05;1.30;;;;;;;;;;5091513;28;20055;-65
2024/02/25 05:41:23;;;;;;;2.20;1.40;;;;;;;;;;5095571;28;20049;-65
2024/02/25 05:43:51;;;;;;;1.63;1.30;;;;;;;;;;5089083;28;20048;-64
2024/02/25 05:46:20;;;;;;;1.65;1.02;;;;;;;;;;5088323;28;20048;-64
2024/02/25 05:48:48;;;;;;;2.25;1.50;;;;;;;;;;5086620;28;20039;-65
2024/02/25 05:51:18;;;;;;;6.18;1.33;;;;;;;;;;5100633;28;20047;-67
2024/02/25 05:53:47;;;;;;;1.77;1.20;;;;;;;;;;5086877;28;20459;-66
2024/02/25 05:56:15;;;;;;;2.67;1.33;;;;;;;;;;5089260;28;20044;-66
2024/02/25 05:58:44;;;;;;;3.50;1.38;;;;;;;;;;5097773;28;20040;-67
2024/02/25 06:01:12;;;;;;;1.38;1.05;;;;;;;;;;5086625;28;20430;-64
2024/02/25 06:03:41;;;;;;;1.67;1.17;;;;;;;;;;5087516;28;20059;-66
2024/02/25 06:06:11;;;;;;;1.30;1.20;;;;;;;;;;5094853;28;20059;-65
2024/02/25 06:08:41;;;;;;;1.67;1.35;;;;;;;;;;5079080;28;20487;-65
2024/02/25 06:11:09;;;;;;;1.80;1.10;;;;;;;;;;5091910;28;20063;-69
2024/02/25 06:13:37;;;;;;;2.15;1.17;;;;;;;;;;5089357;28;20404;-65
2024/02/25 06:16:06;;;;;;;1.25;1.05;;;;;;;;;;5084758;28;20044;-65
2024/02/25 06:18:34;;;;;;;1.23;1.13;;;;;;;;;;5086119;28;20051;-65
2024/02/25 06:21:03;;;;;;;1.30;1.20;;;;;;;;;;5086284;28;20072;-68
2024/02/25 06:23:32;;;;;;;1.20;1.05;;;;;;;;;;5085979;28;20056;-65
2024/02/25 06:26:03;;;;;;;2.05;1.20;;;;;;;;;;5086350;28;20055;-63
2024/02/25 06:28:32;;;;;;;1.45;1.20;;;;;;;;;;5085825;28;20476;-65
2024/02/25 06:31:00;;;;;;;1.30;1.00;;;;;;;;;;5091422;28;20045;-68
2024/02/25 06:33:29;;;;;;;2.88;1.52;;;;;;;;;;5086563;28;20056;-66
2024/02/25 06:35:57;;;;;;;2.75;1.30;;;;;;;;;;5088813;28;20136;-65
2024/02/25 06:38:26;;;;;;;1.17;0.95;;;;;;;;;;5100732;28;20050;-65
2024/02/25 06:40:54;;;;;;;1.10;1.05;;;;;;;;;;5092455;28;20456;-66
2024/02/25 06:43:25;;;;;;;1.80;1.00;;;;;;;;;;5100416;28;20068;-66
2024/02/25 06:45:53;;;;;;;2.65;1.10;;;;;;;;;;5088026;28;20067;-65
2024/02/25 06:48:21;;;;;;;2.30;1.02;;;;;;;;;;5094288;28;20051;-66
2024/02/25 06:50:50;;;;;;;1.88;1.30;;;;;;;;;;5091069;28;20382;-64
2024/02/25 06:53:18;;;;;;;2.63;0.98;;;;;;;;;;5092042;28;20055;-65
2024/02/25 06:55:47;;;;;;;3.78;1.40;;;;;;;;;;5093159;28;20399;-66
2024/02/25 06:58:15;;;;;;;1.40;1.10;;;;;;;;;;5087817;28;20051;-67
2024/02/25 07:00:45;;;;;;;1.58;1.02;;;;;;;;;;5084491;28;20105;-65
2024/02/25 07:03:13;;;;;;;1.50;1.20;;;;;;;;;;5089784;28;20055;-62
2024/02/25 07:05:43;;;;;;;0.80;0.80;;;;;;;;;;5092026;28;20036;-65
2024/02/25 07:08:12;;;;;;;1.02;0.93;;;;;;;;;;5078110;28;20058;-66
2024/02/25 07:10:40;;;;;;;1.27;1.10;;;;;;;;;;5069640;28;20048;-65
2024/02/25 07:13:08;;;;;;;1.10;1.00;;;;;;;;;;5073784;28;20512;-67
2024/02/25 07:15:37;;;;;;;1.38;1.08;;;;;;;;;;5085301;28;20055;-65
2024/02/25 07:18:07;;;;;;;1.85;0.80;;;;;;;;;;5078165;28;20067;-67
2024/02/25 07:20:36;;;;;;;3.05;1.23;;;;;;;;;;5077826;28;20538;-66
2024/02/25 07:23:04;;;;;;;1.27;1.08;;;;;;;;;;5076253;28;20497;-65
2024/02/25 07:25:33;;;;;;;1.10;1.00;;;;;;;;;;5081606;28;20046;-65
2024/02/25 07:28:01;;;;;;;1.48;1.02;;;;;;;;;;5074003;28;20048;-68
2024/02/25 07:30:30;;;;;;;2.25;1.13;;;;;;;;;;5077203;28;20082;-66
2024/02/25 07:32:58;;;;;;;1.15;0.95;;;;;;;;;;5070612;28;20080;-66
2024/02/25 07:35:28;;;;;;;1.40;1.20;;;;;;;;;;5071527;28;20378;-66
2024/02/25 07:37:56;;;;;;;3.28;0.90;;;;;;;;;;5076716;28;20056;-66
2024/02/25 07:40:25;;;;;;;3.00;1.00;;;;;;;;;;5077091;28;20075;-65
2024/02/25 07:42:53;;;;;;;1.10;0.95;;;;;;;;;;5073924;28;20087;-64
2024/02/25 07:45:22;;;;;;;1.05;0.90;;;;;;;;;;5075295;28;20101;-64
2024/02/25 07:47:50;;;;;;;2.17;0.95;;;;;;;;;;5073270;28;20052;-66
2024/02/25 07:50:19;;;;;;;1.42;0.90;;;;;;;;;;5064445;28;20056;-66
2024/02/25 07:52:48;;;;;;;1.25;1.00;;;;;;;;;;5074823;28;20079;-65
2024/02/25 07:55:17;;;;;;;1.30;1.20;;;;;;;;;;5073906;28;20464;-67
2024/02/25 07:57:46;;;;;;;0.95;0.90;;;;;;;;;;5069983;28;20102;-65
2024/02/25 08:00:15;;;;;;;1.20;1.10;;;;;;;;;;5068392;28;20041;-66
2024/02/25 08:02:43;;;;;;;1.10;1.00;;;;;;;;;;5076109;28;20052;-65
2024/02/25 08:05:12;;;;;;;1.40;1.02;;;;;;;;;;5079628;28;20147;-65
2024/02/25 08:07:44;;;;;;;1.60;1.00;;;;;;;;;;5070433;28;20094;-67
2024/02/25 08:10:15;;;;;;;0.88;0.75;;;;;;;;;;5068363;28;20048;-68
2024/02/25 08:12:45;;;;;;;1.25;0.93;;;;;;;;;;5069167;28;20044;-67
2024/02/25 08:15:14;;;;;;;1.40;0.98;;;;;;;;;;5069151;28;20048;-66
2024/02/25 08:17:42;;;;;;;1.10;1.00;;;;;;;;;;5071466;28;20067;-65
2024/02/25 08:20:11;;;;;;;1.40;0.98;;;;;;;;;;5068719;28;20079;-68
2024/02/25 08:22:40;;;;;;;0.70;0.70;;;;;;;;;;5068491;28;20063;-67
2024/02/25 08:25:09;;;;;;;1.15;1.00;;;;;;;;;;5070448;28;20106;-67
2024/02/25 08:27:39;;;;;;;1.20;1.10;;;;;;;;;;5068939;28;20519;-65
2024/02/25 08:30:08;;;;;;;1.95;1.40;;;;;;;;;;5069747;28;20067;-66
2024/02/25 08:32:36;;;;;;;4.32;1.35;;;;;;;;;;5068062;28;20048;-69
2024/02/25 08:35:07;;;;;;;2.85;1.35;;;;;;;;;;5067235;28;20048;-65
2024/02/25 08:37:35;;;;;;;2.28;1.40;;;;;;;;;;5067849;28;20048;-66
2024/02/25 08:40:04;;;;;;;1.65;1.20;;;;;;;;;;5067866;28;20048;-65
2024/02/25 08:42:33;;;;;;;1.65;1.40;;;;;;;;;;5068927;28;20057;-65
2024/02/25 08:45:03;;;;;;;1.10;1.00;;;;;;;;;;5068256;28;20101;-65
2024/02/25 08:47:32;;;;;;;2.40;1.10;;;;;;;;;;5066193;28;20075;-66
2024/02/25 08:50:00;;;;;;;2.03;1.10;;;;;;;;;;5065908;28;20060;-69
2024/02/25 08:52:29;;;;;;;1.52;1.20;;;;;;;;;;5066996;28;20043;-66
2024/02/25 08:54:57;;;;;;;1.83;1.10;;;;;;;;;;5067408;28;20045;-69
2024/02/25 08:57:30;;;;;;;1.27;0.98;;;;;;;;;;5067808;28;20045;-65
2024/02/25 08:59:58;;;;;;;1.20;1.00;;;;;;;;;;5067663;28;20061;-67
2024/02/25 09:02:28;;;;;;;2.15;0.90;;;;;;;;;;5066679;28;20080;-67
2024/02/25 09:04:57;;;;;;;2.33;0.90;;;;;;;;;;5067446;28;20156;-68
2024/02/25 09:07:25;;;;;;;1.38;0.98;;;;;;;;;;5074156;28;20140;-70
2024/02/25 09:09:54;;;;;;;1.10;0.90;;;;;;;;;;5088387;28;20055;-65
2024/02/25 09:12:22;;;;;;;0.88;0.85;;;;;;;;;;5086324;28;20044;-67
2024/02/25 09:14:51;;;;;;;1.63;1.00;;;;;;;;;;5101597;28;20097;-67
2024/02/25 09:17:19;;;;;;;0.88;0.85;;;;;;;;;;5087393;28;20560;-65
2024/02/25 09:19:49;;;;;;;1.08;0.98;;;;;;;;;;5087513;28;20516;-65
2024/02/25 09:22:18;;;;;;;1.13;0.82;;;;;;;;;;5088629;28;20044;-67
2024/02/25 09:24:46;;;;;;;2.83;1.00;;;;;;;;;;5083861;28;20846;-66
2024/02/25 09:27:14;;;;;;;0.80;0.75;;;;;;;;;;5087744;28;20048;-66
2024/02/25 09:29:43;;;;;;;0.95;0.73;;;;;;;;;;5086191;28;20507;-66
2024/02/25 09:32:12;;;;;;;1.15;0.70;;;;;;;;;;5085355;28;20112;-67
2024/02/25 09:34:40;;;;;;;3.15;0.90;;;;;;;;;;5086443;28;20113;-66
2024/02/25 09:37:10;;;;;;;0.55;0.55;;;;;;;;;;5086393;28;20052;-65
2024/02/25 09:39:40;;;;;;;0.80;0.80;;;;;;;;;;5088411;28;20572;-66
2024/02/25 09:42:09;;;;;;;1.20;0.90;;;;;;;;;;5086080;28;20123;-66
2024/02/25 09:44:38;;;;;;;2.38;0.70;;;;;;;;;;5087015;28;20067;-67
2024/02/25 09:47:08;;;;;;;0.50;0.50;;;;;;;;;;5086419;28;20044;-66
2024/02/25 09:49:37;;;;;;;0.50;0.50;;;;;;;;;;5086773;28;20036;-66
2024/02/25 09:52:09;;;;;;;0.70;0.60;;;;;;;;;;5087392;28;20048;-69
2024/02/25 09:54:39;;;;;;;0.52;0.50;;;;;;;;;;5088428;28;20086;-69
2024/02/25 09:57:07;;;;;;;1.05;0.70;;;;;;;;;;5083162;28;20052;-65
2024/02/25 09:59:36;;;;;;;1.00;0.60;;;;;;;;;;5086409;28;20062;-65
2024/02/25 10:02:06;;;;;;;1.42;0.45;;;;;;;;;;5085905;28;20044;-68
2024/02/25 10:04:36;;;;;;;0.63;0.57;;;;;;;;;;5083749;28;20400;-68
2024/02/25 10:07:04;;;;;;;0.45;0.40;;;;;;;;;;5089772;28;20117;-64
2024/02/25 10:09:34;;;;;;;0.60;0.50;;;;;;;;;;5086392;28;20036;-66
2024/02/25 10:12:06;;;;;;;0.98;0.60;;;;;;;;;;5087028;28;20075;-67
2024/02/25 10:14:34;;;;;;;0.60;0.60;;;;;;;;;;5086925;28;20127;-68
2024/02/25 10:17:03;;;;;;;1.40;0.77;;;;;;;;;;5082045;28;20048;-69
2024/02/25 10:19:32;;;;;;;0.60;0.60;;;;;;;;;;5083598;28;20597;-67
2024/02/25 10:22:07;;;;;;;0.60;0.57;;;;;;;;;;5085780;28;20533;-68
2024/02/25 10:24:35;;;;;;;;;;;;;;;;;;5090183;28;20093;-67
2024/02/25 10:27:12;;;;;;;0.47;0.47;;;;;;;;;;5099159;28;19963;-67
2024/02/25 10:29:51;;;;;;;0.90;0.68;;;;;;;;;;5084650;28;20051;-68
2024/02/25 10:32:24;;;;;;;0.40;0.40;;;;;;;;;;5097851;28;20552;-65
2024/02/25 10:34:53;;;;;;;0.40;0.40;;;;;;;;;;5087284;28;20051;-68
2024/02/25 10:37:22;;;;;;;0.40;0.40;;;;;;;;;;5088070;28;20558;-69
2024/02/25 10:39:54;;;;;;;0.40;0.40;;;;;;;;;;5097490;28;20515;-68
2024/02/25 10:42:24;;;;;;;0.68;0.43;;;;;;;;;;5087222;28;20066;-72
2024/02/25 10:44:54;;;;;;;0.52;0.43;;;;;;;;;;5094451;28;20052;-66
2024/02/25 10:47:25;;;;;;;0.50;0.50;;;;;;;;;;5082615;28;20072;-67
2024/02/25 10:49:55;;;;;;;0.50;0.50;;;;;;;;;;5091696;28;20064;-67
2024/02/25 10:52:26;;;;;;;0.30;0.30;;;;;;;;;;5088100;28;20036;-65
2024/02/25 10:54:57;;;;;;;0.40;0.40;;;;;;;;;;5090252;28;20143;-67
2024/02/25 10:57:27;;;;;;;0.40;0.40;;;;;;;;;;5092354;28;20194;-67
2024/02/25 10:59:57;;;;;;;1.80;0.50;;;;;;;;;;5089402;28;20072;-67
2024/02/25 11:02:26;;;;;;;0.50;0.50;;;;;;;;;;5088051;28;20055;-70
2024/02/25 11:04:55;;;;;;;0.82;0.50;;;;;;;;;;5089898;28;20048;-66
2024/02/25 11:07:24;;;;;;;0.40;0.40;;;;;;;;;;5083758;28;20044;-68
2024/02/25 11:09:52;;;;;;;1.15;0.40;;;;;;;;;;5084882;28;20044;-70
2024/02/25 11:12:21;;;;;;;0.50;0.50;;;;;;;;;;5088259;28;20068;-68
2024/02/25 11:14:53;;;;;;;0.47;0.47;;;;;;;;;;5085775;28;20362;-65
2024/02/25 11:17:27;;;;;;;0.50;0.50;;;;;;;;;;5085399;28;20386;-69
2024/02/25 11:20:03;;;;;;;0.50;0.50;;;;;;;;;;5089675;28;20710;-63
2024/02/25 11:22:41;;;;;;;1.00;0.50;;;;;;;;;;5091982;28;20089;-62
2024/02/25 11:25:29;;;;;;;0.75;0.52;;;;;;;;;;5087981;28;20040;-67
2024/02/25 11:27:57;;;;;;;1.33;0.80;;;;;;;;;;5090198;28;20055;-68
2024/02/25 11:30:36;;;;;;;0.63;0.57;;;;;;;;;;5097319;28;20532;-66
2024/02/25 11:33:37;;;;;;;1.13;0.50;;;;;;;;;;5089383;28;20090;-67
2024/02/25 11:36:13;;;;;;;0.90;0.50;;;;;;;;;;5086484;28;20190;-68
2024/02/25 11:38:42;;;;;;;0.60;0.60;;;;;;;;;;5091904;28;20516;-66
2024/02/25 11:41:11;;;;;;;1.38;0.55;;;;;;;;;;5086067;28;20044;-69
2024/02/25 11:43:40;;;;;;;0.40;0.40;;;;;;;;;;5087281;28;20044;-66
2024/02/25 11:46:10;;;;;;;0.40;0.40;;;;;;;;;;5090507;28;20514;-66
2024/02/25 11:48:38;;;;;;;0.45;0.45;;;;;;;;;;5095644;28;20078;-69
2024/02/25 11:51:07;;;;;;;0.90;0.50;;;;;;;;;;5086224;28;20048;-66
2024/02/25 11:53:36;;;;;;;2.17;0.60;;;;;;;;;;5087709;28;20052;-66
2024/02/25 11:56:05;;;;;;;0.63;0.50;;;;;;;;;;5087129;28;21170;-68
2024/02/25 11:58:34;;;;;;;0.40;0.40;;;;;;;;;;5087952;28;20055;-66
2024/02/25 12:01:03;;;;;;;2.03;0.50;;;;;;;;;;5088135;28;20058;-65
2024/02/25 12:03:33;;;;;;;0.38;0.38;;;;;;;;;;5089223;28;20040;-63
2024/02/25 12:06:02;;;;;;;0.65;0.50;;;;;;;;;;5088779;28;20558;-65
2024/02/25 12:08:32;;;;;;;1.42;0.45;;;;;;;;;;5073637;28;20063;-63
2024/02/25 12:11:02;;;;;;;0.45;0.40;;;;;;;;;;5074128;28;20059;-67
2024/02/25 12:13:31;;;;;;;2.58;0.60;;;;;;;;;;5069076;28;20407;-67
2024/02/25 12:15:59;;;;;;;1.30;0.50;;;;;;;;;;5069340;28;20502;-67
2024/02/25 12:18:27;;;;;;;0.95;0.70;;;;;;;;;;5068676;28;20087;-66
2024/02/25 12:20:58;;;;;;;1.02;0.70;;;;;;;;;;5067069;28;20114;-66
2024/02/25 12:23:26;;;;;;;0.57;0.57;;;;;;;;;;5073246;28;20059;-69
2024/02/25 12:26:02;;;;;;;1.00;0.70;;;;;;;;;;5071925;28;20142;-67
2024/02/25 12:28:36;;;;;;;0.77;0.60;;;;;;;;;;5069256;28;20135;-66
2024/02/25 12:31:06;;;;;;;1.70;0.60;;;;;;;;;;5068620;28;20045;-66
2024/02/25 12:33:35;;;;;;;0.60;0.60;;;;;;;;;;5067585;28;20044;-63
2024/02/25 12:36:06;;;;;;;1.20;0.60;;;;;;;;;;5077261;28;20049;-64
2024/02/25 12:38:34;;;;;;;0.50;0.50;;;;;;;;;;5076491;28;20056;-70
2024/02/25 12:41:03;;;;;;;0.70;0.70;;;;;;;;;;5069407;28;20471;-65
2024/02/25 12:43:31;;;;;;;0.68;0.65;;;;;;;;;;5072286;28;20123;-67
2024/02/25 12:46:00;;;;;;;1.52;0.80;;;;;;;;;;5069703;28;20048;-68
2024/02/25 12:48:29;;;;;;;0.80;0.70;;;;;;;;;;5068760;28;20124;-68
2024/02/25 12:50:58;;;;;;;0.75;0.65;;;;;;;;;;5070657;28;20107;-66
2024/02/25 12:53:28;;;;;;;0.73;0.70;;;;;;;;;;5069782;28;20049;-67
2024/02/25 12:55:57;;;;;;;0.73;0.73;;;;;;;;;;5075496;28;20055;-66
2024/02/25 12:58:25;;;;;;;0.85;0.77;;;;;;;;;;5065072;28;20048;-68
2024/02/25 13:00:55;;;;;;;0.63;0.63;;;;;;;;;;5070204;28;20063;-68
2024/02/25 13:03:23;;;;;;;1.02;0.70;;;;;;;;;;5072721;28;20043;-66
2024/02/25 13:05:52;;;;;;;0.70;0.68;;;;;;;;;;5069247;28;20125;-66
2024/02/25 13:08:20;;;;;;;1.67;0.70;;;;;;;;;;5071316;28;20059;-69
2024/02/25 13:10:50;;;;;;;0.60;0.60;;;;;;;;;;5068129;28;20090;-68
2024/02/25 13:13:18;;;;;;;1.40;0.57;;;;;;;;;;5076948;28;20055;-68
2024/02/25 13:15:47;;;;;;;0.65;0.50;;;;;;;;;;5070541;28;20464;-68
2024/02/25 13:18:15;;;;;;;0.88;0.60;;;;;;;;;;5070962;28;20101;-66
2024/02/25 13:20:45;;;;;;;1.08;0.88;;;;;;;;;;5072089;28;20101;-69
2024/02/25 13:23:14;;;;;;;1.60;0.70;;;;;;;;;;5070453;28;20056;-67
2024/02/25 13:25:42;;;;;;;0.80;0.80;;;;;;;;;;5065811;28;20040;-65
2024/02/25 13:28:12;;;;;;;0.70;0.63;;;;;;;;;;5068209;28;20051;-66
2024/02/25 13:30:41;;;;;;;0.68;0.50;;;;;;;;;;5071769;28;20041;-68
2024/02/25 13:33:10;;;;;;;0.68;0.65;;;;;;;;;;5080397;28;21028;-65
2024/02/25 13:35:39;;;;;;;1.15;0.70;;;;;;;;;;5071634;28;20540;-67
2024/02/25 13:38:07;;;;;;;1.65;0.68;;;;;;;;;;5072853;28;20063;-65
2024/02/25 13:40:37;;;;;;;0.88;0.60;;;;;;;;;;5063823;28;20402;-67
2024/02/25 13:43:05;;;;;;;0.60;0.60;;;;;;;;;;5066698;28;20098;-65
2024/02/25 13:45:46;;;;;;;0.88;0.75;;;;;;;;;;5068990;28;20049;-68
2024/02/25 13:48:15;;;;;;;2.35;0.95;;;;;;;;;;5068103;28;20048;-69
2024/02/25 13:50:44;;;;;;;1.42;0.82;;;;;;;;;;5068287;28;20049;-68
2024/02/25 13:53:12;;;;;;;0.60;0.60;;;;;;;;;;5066913;28;20143;-68
2024/02/25 13:55:45;;;;;;;0.73;0.60;;;;;;;;;;5067155;28;20093;-68
2024/02/25 13:58:14;;;;;;;0.57;0.57;;;;;;;;;;5071571;28;20363;-69
2024/02/25 14:00:43;;;;;;;0.60;0.60;;;;;;;;;;5075661;28;20041;-68
2024/02/25 14:03:12;;;;;;;0.75;0.70;;;;;;;;;;5074247;28;20053;-68
2024/02/25 14:05:41;;;;;;;0.80;0.70;;;;;;;;;;5073412;28;20040;-68
2024/02/25 14:08:09;;;;;;;0.68;0.50;;;;;;;;;;5068101;28;20056;-69
2024/02/25 14:10:40;;;;;;;0.50;0.50;;;;;;;;;;5064279;28;20037;-72
2024/02/25 14:13:08;;;;;;;2.10;0.75;;;;;;;;;;5066887;28;20072;-67
2024/02/25 14:15:36;;;;;;;0.70;0.60;;;;;;;;;;5065751;28;20507;-64
2024/02/25 14:18:07;;;;;;;1.17;0.90;;;;;;;;;;5073501;28;20413;-67
2024/02/25 14:20:37;;;;;;;0.50;0.50;;;;;;;;;;5075727;28;20548;-66
2024/02/25 14:23:07;;;;;;;0.95;0.60;;;;;;;;;;5074267;28;20063;-66
2024/02/25 14:25:36;;;;;;;0.50;0.50;;;;;;;;;;5065849;28;20045;-67
2024/02/25 14:28:04;;;;;;;0.52;0.52;;;;;;;;;;5080782;28;20051;-67
2024/02/25 14:30:33;;;;;;;0.73;0.55;;;;;;;;;;5063787;28;20126;-66
2024/02/25 14:33:01;;;;;;;2.35;0.65;;;;;;;;;;5066183;28;20049;-66
2024/02/25 14:35:31;;;;;;;0.73;0.63;;;;;;;;;;5071636;28;20063;-64
2024/02/25 14:38:01;;;;;;;0.47;0.47;;;;;;;;;;5077748;28;20516;-65
2024/02/25 14:40:30;;;;;;;0.80;0.63;;;;;;;;;;5068000;28;20049;-64
2024/02/25 14:42:58;;;;;;;0.52;0.50;;;;;;;;;;5067227;28;20093;-65
2024/02/25 14:45:27;;;;;;;1.10;0.80;;;;;;;;;;5065298;28;20048;-68
2024/02/25 14:47:55;;;;;;;0.70;0.70;;;;;;;;;;5069700;28;20468;-63
2024/02/25 14:50:28;;;;;;;0.57;0.57;;;;;;;;;;5068993;28;20044;-65
2024/02/25 14:52:59;;;;;;;0.60;0.50;;;;;;;;;;5065384;28;20041;-66
2024/02/25 14:55:27;;;;;;;0.85;0.50;;;;;;;;;;5065668;28;20044;-65